sensor_id;sensor_type;location;lat;lon;timestamp;noise_LAeq;noise_LA_min;noise_LA_max;noise_LA01;noise_LA95
43385;Laerm;28988;48.042;7.584;2023-01-08T00:01:48;90.14;-20.47;98.86;;
43385;Laerm;28988;48.042;7.584;2023-01-08T00:04:14;90.15;-20.27;98.97;;
43385;Laerm;28988;48.042;7.584;2023-01-08T00:06:41;90.15;-20.15;99.23;;
43385;Laerm;28988;48.042;7.584;2023-01-08T00:09:08;90.17;-29.68;99.03;;
43385;Laerm;28988;48.042;7.584;2023-01-08T00:11:33;90.20;-29.50;99.15;;
43385;Laerm;28988;48.042;7.584;2023-01-08T00:13:58;90.25;-59.19;99.05;;
43385;Laerm;28988;48.042;7.584;2023-01-08T00:16:24;90.33;-36.53;99.67;;
43385;Laerm;28988;48.042;7.584;2023-01-08T00:18:49;90.40;-45.82;99.39;;
43385;Laerm;28988;48.042;7.584;2023-01-08T00:21:14;90.43;-25.70;99.48;;
43385;Laerm;28988;48.042;7.584;2023-01-08T00:23:39;90.48;-27.64;99.46;;
43385;Laerm;28988;48.042;7.584;2023-01-08T00:26:06;90.50;-22.62;99.53;;
43385;Laerm;28988;48.042;7.584;2023-01-08T00:28:31;90.56;-25.58;99.61;;
43385;Laerm;28988;48.042;7.584;2023-01-08T00:30:56;90.64;-31.63;99.62;;
43385;Laerm;28988;48.042;7.584;2023-01-08T00:33:22;90.76;-29.61;99.82;;
43385;Laerm;28988;48.042;7.584;2023-01-08T00:35:47;90.88;-18.87;100.09;;
43385;Laerm;28988;48.042;7.584;2023-01-08T00:38:12;90.89;-29.68;100.10;;
43385;Laerm;28988;48.042;7.584;2023-01-08T00:40:37;90.94;-20.66;100.11;;
43385;Laerm;28988;48.042;7.584;2023-01-08T00:43:04;90.97;-27.17;100.13;;
43385;Laerm;28988;48.042;7.584;2023-01-08T00:45:29;90.91;-37.31;100.25;;
43385;Laerm;28988;48.042;7.584;2023-01-08T00:47:54;90.88;-28.58;100.14;;
43385;Laerm;28988;48.042;7.584;2023-01-08T00:50:20;90.85;-33.37;99.85;;
43385;Laerm;28988;48.042;7.584;2023-01-08T00:52:45;90.80;-24.58;99.88;;
43385;Laerm;28988;48.042;7.584;2023-01-08T00:55:10;90.79;-29.29;99.97;;
43385;Laerm;28988;48.042;7.584;2023-01-08T00:57:36;90.80;-29.34;99.75;;
43385;Laerm;28988;48.042;7.584;2023-01-08T01:00:03;90.77;-24.19;99.94;;
43385;Laerm;28988;48.042;7.584;2023-01-08T01:02:29;90.74;-50.15;100.02;;
43385;Laerm;28988;48.042;7.584;2023-01-08T01:04:54;90.75;-22.46;99.48;;
43385;Laerm;28988;48.042;7.584;2023-01-08T01:07:19;90.77;-39.29;100.03;;
43385;Laerm;28988;48.042;7.584;2023-01-08T01:09:44;90.80;-24.49;100.11;;
43385;Laerm;28988;48.042;7.584;2023-01-08T01:12:09;90.80;-33.17;99.88;;
43385;Laerm;28988;48.042;7.584;2023-01-08T01:14:36;90.79;-36.10;99.62;;
43385;Laerm;28988;48.042;7.584;2023-01-08T01:17:01;90.78;-24.10;99.85;;
43385;Laerm;28988;48.042;7.584;2023-01-08T01:19:26;90.74;-17.54;99.82;;
43385;Laerm;28988;48.042;7.584;2023-01-08T01:21:51;90.71;-20.37;99.74;;
43385;Laerm;28988;48.042;7.584;2023-01-08T01:24:16;90.61;-22.78;99.63;;
43385;Laerm;28988;48.042;7.584;2023-01-08T01:26:42;90.51;-29.35;99.68;;
43385;Laerm;28988;48.042;7.584;2023-01-08T01:29:07;90.43;-33.51;99.51;;
43385;Laerm;28988;48.042;7.584;2023-01-08T01:31:32;90.35;-23.87;99.38;;
43385;Laerm;28988;48.042;7.584;2023-01-08T01:33:57;90.31;-32.56;99.26;;
43385;Laerm;28988;48.042;7.584;2023-01-08T01:36:23;90.29;-44.81;99.60;;
43385;Laerm;28988;48.042;7.584;2023-01-08T01:38:49;90.26;-22.51;99.37;;
43385;Laerm;28988;48.042;7.584;2023-01-08T01:41:22;90.26;-26.90;99.34;;
43385;Laerm;28988;48.042;7.584;2023-01-08T01:43:48;90.27;-48.74;99.30;;
43385;Laerm;28988;48.042;7.584;2023-01-08T01:46:22;90.26;-26.62;99.14;;
43385;Laerm;28988;48.042;7.584;2023-01-08T01:48:50;90.25;-47.06;99.44;;
43385;Laerm;28988;48.042;7.584;2023-01-08T01:51:16;90.26;-26.16;99.23;;
43385;Laerm;28988;48.042;7.584;2023-01-08T01:53:42;90.25;-23.01;99.33;;
43385;Laerm;28988;48.042;7.584;2023-01-08T01:56:07;90.25;-25.16;99.15;;
43385;Laerm;28988;48.042;7.584;2023-01-08T01:58:32;90.27;-28.88;99.23;;
43385;Laerm;28988;48.042;7.584;2023-01-08T02:01:00;90.32;-44.06;99.32;;
43385;Laerm;28988;48.042;7.584;2023-01-08T02:03:28;90.33;-27.89;99.28;;
43385;Laerm;28988;48.042;7.584;2023-01-08T02:11:09;90.40;-23.86;99.40;;
43385;Laerm;28988;48.042;7.584;2023-01-08T02:13:39;90.36;-25.34;99.24;;
43385;Laerm;28988;48.042;7.584;2023-01-08T02:16:11;90.35;-29.56;99.61;;
43385;Laerm;28988;48.042;7.584;2023-01-08T02:18:43;90.38;-20.80;99.36;;
43385;Laerm;28988;48.042;7.584;2023-01-08T02:21:12;90.43;-20.26;99.48;;
43385;Laerm;28988;48.042;7.584;2023-01-08T02:23:48;90.50;-37.97;99.72;;
43385;Laerm;28988;48.042;7.584;2023-01-08T02:28:47;90.74;-30.70;99.90;;
43385;Laerm;28988;48.042;7.584;2023-01-08T02:31:13;90.86;-18.99;99.87;;
43385;Laerm;28988;48.042;7.584;2023-01-08T02:33:39;91.07;-59.93;100.03;;
43385;Laerm;28988;48.042;7.584;2023-01-08T02:36:19;91.37;-36.54;100.42;;
43385;Laerm;28988;48.042;7.584;2023-01-08T02:38:56;91.58;-55.27;100.53;;
43385;Laerm;28988;48.042;7.584;2023-01-08T02:41:24;91.67;-49.50;100.66;;
43385;Laerm;28988;48.042;7.584;2023-01-08T02:43:54;91.93;-30.02;100.65;;
43385;Laerm;28988;48.042;7.584;2023-01-08T02:46:22;92.18;-45.10;100.77;;
43385;Laerm;28988;48.042;7.584;2023-01-08T02:49:00;92.53;-27.90;100.87;;
43385;Laerm;28988;48.042;7.584;2023-01-08T02:51:36;92.49;-21.12;101.30;;
43385;Laerm;28988;48.042;7.584;2023-01-08T02:54:05;91.88;-36.31;100.71;;
43385;Laerm;28988;48.042;7.584;2023-01-08T02:56:33;91.45;-30.92;100.62;;
43385;Laerm;28988;48.042;7.584;2023-01-08T02:58:59;91.17;-34.45;100.47;;
43385;Laerm;28988;48.042;7.584;2023-01-08T03:01:26;90.75;-17.68;100.00;;
43385;Laerm;28988;48.042;7.584;2023-01-08T03:03:53;93.31;-45.85;104.91;;
43385;Laerm;28988;48.042;7.584;2023-01-08T03:06:20;90.29;-27.14;99.26;;
43385;Laerm;28988;48.042;7.584;2023-01-08T03:08:47;90.20;-29.68;99.19;;
43385;Laerm;28988;48.042;7.584;2023-01-08T03:11:15;90.16;-14.85;98.91;;
43385;Laerm;28988;48.042;7.584;2023-01-08T03:13:45;90.53;-22.78;100.40;;
43385;Laerm;28988;48.042;7.584;2023-01-08T03:16:16;90.24;-20.23;99.08;;
43385;Laerm;28988;48.042;7.584;2023-01-08T03:18:48;90.26;-21.41;99.78;;
43385;Laerm;28988;48.042;7.584;2023-01-08T03:21:13;90.24;-22.15;99.37;;
43385;Laerm;28988;48.042;7.584;2023-01-08T03:23:40;98.88;-16.01;105.60;;
43385;Laerm;28988;48.042;7.584;2023-01-08T03:26:05;92.95;-41.29;103.96;;
43385;Laerm;28988;48.042;7.584;2023-01-08T03:28:32;90.15;-21.54;98.89;;
43385;Laerm;28988;48.042;7.584;2023-01-08T03:30:59;98.04;-29.37;105.23;;
43385;Laerm;28988;48.042;7.584;2023-01-08T03:33:25;100.53;-24.72;105.36;;
43385;Laerm;28988;48.042;7.584;2023-01-08T03:35:52;94.01;-28.92;105.02;;
43385;Laerm;28988;48.042;7.584;2023-01-08T03:38:28;90.68;-20.15;100.00;;
43385;Laerm;28988;48.042;7.584;2023-01-08T03:40:55;90.24;-28.83;99.19;;
43385;Laerm;28988;48.042;7.584;2023-01-08T03:43:21;90.15;-29.68;99.01;;
43385;Laerm;28988;48.042;7.584;2023-01-08T03:45:57;90.13;-20.19;98.76;;
43385;Laerm;28988;48.042;7.584;2023-01-08T03:48:24;90.13;-14.85;98.60;;
43385;Laerm;28988;48.042;7.584;2023-01-08T03:50:49;90.13;-14.66;98.71;;
43385;Laerm;28988;48.042;7.584;2023-01-08T03:53:15;90.13;-14.85;98.60;;
43385;Laerm;28988;48.042;7.584;2023-01-08T03:55:40;90.29;-36.54;99.99;;
43385;Laerm;28988;48.042;7.584;2023-01-08T03:58:05;90.30;-12.79;99.55;;
43385;Laerm;28988;48.042;7.584;2023-01-08T04:00:30;90.14;-18.58;99.08;;
43385;Laerm;28988;48.042;7.584;2023-01-08T04:02:55;90.14;-17.35;98.86;;
43385;Laerm;28988;48.042;7.584;2023-01-08T04:05:20;90.13;-14.85;98.80;;
43385;Laerm;28988;48.042;7.584;2023-01-08T04:07:46;90.13;-16.02;98.81;;
43385;Laerm;28988;48.042;7.584;2023-01-08T04:10:11;90.13;-21.54;98.60;;
43385;Laerm;28988;48.042;7.584;2023-01-08T04:12:36;90.14;-14.08;98.85;;
43385;Laerm;28988;48.042;7.584;2023-01-08T04:15:01;90.13;-16.02;98.75;;
43385;Laerm;28988;48.042;7.584;2023-01-08T04:17:26;90.15;-29.09;98.91;;
43385;Laerm;28988;48.042;7.584;2023-01-08T04:19:52;90.13;-17.33;98.71;;
43385;Laerm;28988;48.042;7.584;2023-01-08T04:22:17;90.14;-14.85;98.70;;
43385;Laerm;28988;48.042;7.584;2023-01-08T04:24:42;90.14;-27.65;98.86;;
43385;Laerm;28988;48.042;7.584;2023-01-08T04:27:07;90.14;-14.85;98.70;;
43385;Laerm;28988;48.042;7.584;2023-01-08T04:29:32;90.13;-21.54;98.71;;
43385;Laerm;28988;48.042;7.584;2023-01-08T04:31:58;90.14;-14.85;98.81;;
43385;Laerm;28988;48.042;7.584;2023-01-08T04:34:23;90.77;-58.67;100.84;;
43385;Laerm;28988;48.042;7.584;2023-01-08T04:36:49;92.06;-40.69;101.71;;
43385;Laerm;28988;48.042;7.584;2023-01-08T04:39:14;91.53;-44.87;101.12;;
43385;Laerm;28988;48.042;7.584;2023-01-08T04:41:39;91.28;-25.12;100.69;;
43385;Laerm;28988;48.042;7.584;2023-01-08T04:44:04;92.02;-29.38;101.47;;
43385;Laerm;28988;48.042;7.584;2023-01-08T04:46:29;92.95;-19.13;102.01;;
43385;Laerm;28988;48.042;7.584;2023-01-08T04:48:54;94.14;-49.96;103.83;;
43385;Laerm;28988;48.042;7.584;2023-01-08T04:51:20;97.64;-27.96;105.74;;
43385;Laerm;28988;48.042;7.584;2023-01-08T04:53:46;100.43;-12.30;105.91;;
43385;Laerm;28988;48.042;7.584;2023-01-08T04:56:11;99.45;-16.53;105.15;;
43385;Laerm;28988;48.042;7.584;2023-01-08T04:58:36;100.27;-17.57;104.94;;
43385;Laerm;28988;48.042;7.584;2023-01-08T05:01:12;100.52;-9.24;105.71;;
43385;Laerm;28988;48.042;7.584;2023-01-08T05:03:37;99.67;-21.94;105.80;;
43385;Laerm;28988;48.042;7.584;2023-01-08T05:06:03;96.90;-37.13;105.25;;
43385;Laerm;28988;48.042;7.584;2023-01-08T05:08:28;96.74;-28.38;104.55;;
43385;Laerm;28988;48.042;7.584;2023-01-08T05:10:53;97.49;-21.41;104.27;;
43385;Laerm;28988;48.042;7.584;2023-01-08T05:13:18;95.47;-42.40;104.07;;
43385;Laerm;28988;48.042;7.584;2023-01-08T05:15:43;94.47;-32.50;103.92;;
43385;Laerm;28988;48.042;7.584;2023-01-08T05:18:09;94.94;-32.52;104.66;;
43385;Laerm;28988;48.042;7.584;2023-01-08T05:20:34;96.91;-33.49;106.43;;
43385;Laerm;28988;48.042;7.584;2023-01-08T05:22:59;97.98;-51.89;104.35;;
43385;Laerm;28988;48.042;7.584;2023-01-08T05:25:25;93.24;-24.86;103.77;;
43385;Laerm;28988;48.042;7.584;2023-01-08T05:27:50;88.99;-57.90;102.80;;
43385;Laerm;28988;48.042;7.584;2023-01-08T05:30:16;89.10;-28.26;102.52;;
43385;Laerm;28988;48.042;7.584;2023-01-08T05:32:41;85.70;-48.10;96.87;;
43385;Laerm;28988;48.042;7.584;2023-01-08T05:35:06;86.29;-34.96;98.54;;
43385;Laerm;28988;48.042;7.584;2023-01-08T05:37:34;85.47;-60.12;99.05;;
43385;Laerm;28988;48.042;7.584;2023-01-08T05:40:00;84.44;-23.73;95.70;;
43385;Laerm;28988;48.042;7.584;2023-01-08T05:42:25;84.35;-35.14;95.68;;
43385;Laerm;28988;48.042;7.584;2023-01-08T05:44:50;84.31;-34.16;95.17;;
43385;Laerm;28988;48.042;7.584;2023-01-08T05:47:15;84.30;-35.14;95.26;;
43385;Laerm;28988;48.042;7.584;2023-01-08T05:49:41;84.30;-57.68;94.89;;
43385;Laerm;28988;48.042;7.584;2023-01-08T05:52:06;84.26;-28.29;94.97;;
43385;Laerm;28988;48.042;7.584;2023-01-08T05:54:31;84.23;-26.12;94.88;;
43385;Laerm;28988;48.042;7.584;2023-01-08T05:56:56;84.23;-20.71;93.82;;
43385;Laerm;28988;48.042;7.584;2023-01-08T05:59:21;84.21;-20.71;93.83;;
43385;Laerm;28988;48.042;7.584;2023-01-08T06:01:46;84.21;-35.14;93.97;;
43385;Laerm;28988;48.042;7.584;2023-01-08T06:04:12;84.20;-33.96;94.13;;
43385;Laerm;28988;48.042;7.584;2023-01-08T06:06:37;84.18;-20.71;93.98;;
43385;Laerm;28988;48.042;7.584;2023-01-08T06:09:02;84.19;-22.68;93.47;;
43385;Laerm;28988;48.042;7.584;2023-01-08T06:11:27;84.17;-20.71;93.31;;
43385;Laerm;28988;48.042;7.584;2023-01-08T06:13:52;84.15;-20.71;93.32;;
43385;Laerm;28988;48.042;7.584;2023-01-08T06:16:18;84.13;-20.71;93.30;;
43385;Laerm;28988;48.042;7.584;2023-01-08T06:18:44;84.12;-33.10;93.37;;
43385;Laerm;28988;48.042;7.584;2023-01-08T06:21:10;84.13;-33.10;93.64;;
43385;Laerm;28988;48.042;7.584;2023-01-08T06:23:37;84.13;-31.77;93.65;;
43385;Laerm;28988;48.042;7.584;2023-01-08T06:26:02;84.14;-20.71;92.95;;
43385;Laerm;28988;48.042;7.584;2023-01-08T06:28:30;84.14;-20.71;93.31;;
43385;Laerm;28988;48.042;7.584;2023-01-08T06:30:59;84.14;-31.77;93.13;;
43385;Laerm;28988;48.042;7.584;2023-01-08T06:33:24;84.15;-20.71;93.13;;
43385;Laerm;28988;48.042;7.584;2023-01-08T06:35:49;84.12;-25.37;93.97;;
43385;Laerm;28988;48.042;7.584;2023-01-08T06:38:15;84.12;-23.85;93.13;;
43385;Laerm;28988;48.042;7.584;2023-01-08T06:40:42;84.10;-33.34;93.31;;
43385;Laerm;28988;48.042;7.584;2023-01-08T06:43:08;84.08;-40.41;92.94;;
43385;Laerm;28988;48.042;7.584;2023-01-08T06:45:33;84.14;-22.68;93.31;;
43385;Laerm;28988;48.042;7.584;2023-01-08T06:48:02;84.14;-31.77;93.13;;
43385;Laerm;28988;48.042;7.584;2023-01-08T06:50:27;84.14;-31.77;93.13;;
43385;Laerm;28988;48.042;7.584;2023-01-08T06:52:53;84.10;-35.14;93.13;;
43385;Laerm;28988;48.042;7.584;2023-01-08T06:55:19;84.02;-24.05;93.27;;
43385;Laerm;28988;48.042;7.584;2023-01-08T06:57:44;84.04;-39.66;92.94;;
43385;Laerm;28988;48.042;7.584;2023-01-08T07:00:09;84.10;-43.71;93.13;;
43385;Laerm;28988;48.042;7.584;2023-01-08T07:02:35;84.06;-43.71;93.12;;
43385;Laerm;28988;48.042;7.584;2023-01-08T07:05:00;83.98;-35.14;92.85;;
43385;Laerm;28988;48.042;7.584;2023-01-08T07:07:25;83.97;-43.71;93.02;;
43385;Laerm;28988;48.042;7.584;2023-01-08T07:09:50;83.90;-34.16;92.83;;
43385;Laerm;28988;48.042;7.584;2023-01-08T07:12:15;83.75;-39.29;92.90;;
43385;Laerm;28988;48.042;7.584;2023-01-08T07:14:40;83.68;-32.15;92.62;;
43385;Laerm;28988;48.042;7.584;2023-01-08T07:17:06;83.46;-47.13;93.08;;
43385;Laerm;28988;48.042;7.584;2023-01-08T07:19:31;83.30;-48.58;92.79;;
43385;Laerm;28988;48.042;7.584;2023-01-08T07:21:56;82.82;-51.62;93.47;;
43385;Laerm;28988;48.042;7.584;2023-01-08T07:24:21;82.96;-46.90;92.58;;
43385;Laerm;28988;48.042;7.584;2023-01-08T07:26:47;83.11;-50.23;92.58;;
43385;Laerm;28988;48.042;7.584;2023-01-08T07:29:12;83.41;-52.22;92.72;;
43385;Laerm;28988;48.042;7.584;2023-01-08T07:31:37;83.09;-49.73;92.58;;
43385;Laerm;28988;48.042;7.584;2023-01-08T07:34:02;82.75;-38.65;92.58;;
43385;Laerm;28988;48.042;7.584;2023-01-08T07:36:27;83.04;-54.22;93.39;;
43385;Laerm;28988;48.042;7.584;2023-01-08T07:38:53;83.56;-33.10;92.58;;
43385;Laerm;28988;48.042;7.584;2023-01-08T07:41:18;83.63;-53.08;92.59;;
43385;Laerm;28988;48.042;7.584;2023-01-08T07:43:43;83.89;-28.94;92.67;;
43385;Laerm;28988;48.042;7.584;2023-01-08T07:46:10;84.01;-23.98;93.36;;
43385;Laerm;28988;48.042;7.584;2023-01-08T07:48:36;84.07;-43.71;93.41;;
43385;Laerm;28988;48.042;7.584;2023-01-08T07:51:01;84.08;-43.71;93.18;;
43385;Laerm;28988;48.042;7.584;2023-01-08T07:53:27;84.11;-31.89;93.13;;
43385;Laerm;28988;48.042;7.584;2023-01-08T07:55:57;84.14;-43.71;93.89;;
43385;Laerm;28988;48.042;7.584;2023-01-08T07:58:22;84.14;-22.68;93.30;;
43385;Laerm;28988;48.042;7.584;2023-01-08T08:00:47;84.14;-33.66;92.94;;
43385;Laerm;28988;48.042;7.584;2023-01-08T08:03:12;84.16;-27.23;93.30;;
43385;Laerm;28988;48.042;7.584;2023-01-08T08:05:37;84.17;-20.71;94.27;;
43385;Laerm;28988;48.042;7.584;2023-01-08T08:08:06;84.20;-20.71;93.89;;
43385;Laerm;28988;48.042;7.584;2023-01-08T08:10:31;84.24;-33.10;94.00;;
43385;Laerm;28988;48.042;7.584;2023-01-08T08:12:57;84.31;-57.68;95.05;;
43385;Laerm;28988;48.042;7.584;2023-01-08T08:15:22;84.34;-29.69;95.27;;
43385;Laerm;28988;48.042;7.584;2023-01-08T08:17:47;84.42;-40.22;95.30;;
43385;Laerm;28988;48.042;7.584;2023-01-08T08:20:13;84.85;-49.50;96.30;;
43385;Laerm;28988;48.042;7.584;2023-01-08T08:22:39;87.21;-22.71;101.67;;
43385;Laerm;28988;48.042;7.584;2023-01-08T08:25:04;90.78;-31.21;103.18;;
43385;Laerm;28988;48.042;7.584;2023-01-08T08:27:29;99.56;-20.35;106.08;;
43385;Laerm;28988;48.042;7.584;2023-01-08T08:29:54;98.61;-25.17;105.63;;
43385;Laerm;28988;48.042;7.584;2023-01-08T08:32:19;94.38;-32.72;101.89;;
43385;Laerm;28988;48.042;7.584;2023-01-08T08:34:45;91.71;-50.03;100.85;;
43385;Laerm;28988;48.042;7.584;2023-01-08T08:37:10;90.69;-19.58;99.64;;
43385;Laerm;28988;48.042;7.584;2023-01-08T08:39:35;90.18;-29.68;99.06;;
43385;Laerm;28988;48.042;7.584;2023-01-08T08:42:00;90.14;-16.02;98.82;;
43385;Laerm;28988;48.042;7.584;2023-01-08T08:44:25;90.14;-23.70;98.70;;
43385;Laerm;28988;48.042;7.584;2023-01-08T08:46:51;90.13;-16.02;98.71;;
43385;Laerm;28988;48.042;7.584;2023-01-08T08:49:16;90.13;-20.23;98.70;;
43385;Laerm;28988;48.042;7.584;2023-01-08T08:51:41;90.13;-27.75;98.66;;
43385;Laerm;28988;48.042;7.584;2023-01-08T08:54:06;90.13;-14.85;98.66;;
43385;Laerm;28988;48.042;7.584;2023-01-08T08:56:31;90.13;-16.02;98.66;;
43385;Laerm;28988;48.042;7.584;2023-01-08T08:58:56;90.13;-16.02;98.60;;
43385;Laerm;28988;48.042;7.584;2023-01-08T09:01:22;90.13;-19.80;98.60;;
43385;Laerm;28988;48.042;7.584;2023-01-08T09:03:47;90.13;-14.85;98.66;;
43385;Laerm;28988;48.042;7.584;2023-01-08T09:06:12;90.13;-37.21;98.62;;
43385;Laerm;28988;48.042;7.584;2023-01-08T09:08:38;90.13;-20.21;98.66;;
43385;Laerm;28988;48.042;7.584;2023-01-08T09:11:03;90.13;-15.68;98.70;;
43385;Laerm;28988;48.042;7.584;2023-01-08T09:13:28;90.13;-14.34;98.66;;
43385;Laerm;28988;48.042;7.584;2023-01-08T09:15:56;90.14;-35.27;98.76;;
43385;Laerm;28988;48.042;7.584;2023-01-08T09:18:21;90.13;-14.85;98.66;;
43385;Laerm;28988;48.042;7.584;2023-01-08T09:20:46;90.14;-16.02;98.81;;
43385;Laerm;28988;48.042;7.584;2023-01-08T09:23:11;90.14;-21.54;98.66;;
43385;Laerm;28988;48.042;7.584;2023-01-08T09:25:37;90.13;-25.66;98.71;;
43385;Laerm;28988;48.042;7.584;2023-01-08T09:28:03;90.13;-15.57;98.75;;
43385;Laerm;28988;48.042;7.584;2023-01-08T09:30:29;90.14;-21.54;98.71;;
43385;Laerm;28988;48.042;7.584;2023-01-08T09:32:55;90.13;-28.53;98.66;;
43385;Laerm;28988;48.042;7.584;2023-01-08T09:35:20;90.14;-21.54;98.76;;
43385;Laerm;28988;48.042;7.584;2023-01-08T09:37:48;90.13;-16.02;98.71;;
43385;Laerm;28988;48.042;7.584;2023-01-08T09:40:14;90.14;-16.02;98.86;;
43385;Laerm;28988;48.042;7.584;2023-01-08T09:42:40;90.14;-14.85;98.81;;
43385;Laerm;28988;48.042;7.584;2023-01-08T09:45:05;90.14;-24.93;98.71;;
43385;Laerm;28988;48.042;7.584;2023-01-08T09:47:37;90.14;-20.23;98.95;;
43385;Laerm;28988;48.042;7.584;2023-01-08T09:50:04;90.14;-24.42;98.86;;
43385;Laerm;28988;48.042;7.584;2023-01-08T09:52:30;90.13;-38.13;98.76;;
43385;Laerm;28988;48.042;7.584;2023-01-08T09:54:55;90.14;-25.46;98.78;;
43385;Laerm;28988;48.042;7.584;2023-01-08T09:57:21;90.14;-21.54;98.90;;
43385;Laerm;28988;48.042;7.584;2023-01-08T09:59:47;90.14;-20.23;98.79;;
43385;Laerm;28988;48.042;7.584;2023-01-08T10:02:14;90.13;-20.67;98.75;;
43385;Laerm;28988;48.042;7.584;2023-01-08T10:04:39;90.13;-21.22;98.86;;
43385;Laerm;28988;48.042;7.584;2023-01-08T10:07:16;90.15;-17.78;98.71;;
43385;Laerm;28988;48.042;7.584;2023-01-08T10:09:45;90.14;-19.74;98.98;;
43385;Laerm;28988;48.042;7.584;2023-01-08T10:12:11;90.15;-27.17;98.81;;
43385;Laerm;28988;48.042;7.584;2023-01-08T10:14:38;90.15;-20.48;99.00;;
43385;Laerm;28988;48.042;7.584;2023-01-08T10:17:04;90.15;-21.54;98.86;;
43385;Laerm;28988;48.042;7.584;2023-01-08T10:19:32;90.15;-19.46;98.82;;
43385;Laerm;28988;48.042;7.584;2023-01-08T10:21:57;90.15;-21.54;98.76;;
43385;Laerm;28988;48.042;7.584;2023-01-08T10:24:30;90.14;-21.54;99.09;;
43385;Laerm;28988;48.042;7.584;2023-01-08T10:27:03;90.15;-24.84;98.90;;
43385;Laerm;28988;48.042;7.584;2023-01-08T10:29:29;90.15;-16.02;98.99;;
43385;Laerm;28988;48.042;7.584;2023-01-08T10:31:54;90.15;-36.04;98.94;;
43385;Laerm;28988;48.042;7.584;2023-01-08T10:34:38;90.15;-18.00;99.22;;
43385;Laerm;28988;48.042;7.584;2023-01-08T10:37:21;90.16;-16.02;98.95;;
43385;Laerm;28988;48.042;7.584;2023-01-08T10:39:47;90.16;-22.78;98.90;;
43385;Laerm;28988;48.042;7.584;2023-01-08T10:42:13;90.16;-21.22;99.14;;
43385;Laerm;28988;48.042;7.584;2023-01-08T10:44:45;90.16;-35.63;99.11;;
43385;Laerm;28988;48.042;7.584;2023-01-08T10:47:15;90.17;-20.67;99.08;;
43385;Laerm;28988;48.042;7.584;2023-01-08T10:49:41;90.18;-21.54;99.21;;
43385;Laerm;28988;48.042;7.584;2023-01-08T10:52:24;90.20;-27.19;98.98;;
43385;Laerm;28988;48.042;7.584;2023-01-08T10:54:49;90.22;-59.93;98.96;;
43385;Laerm;28988;48.042;7.584;2023-01-08T10:57:19;90.26;-29.68;99.08;;
43385;Laerm;28988;48.042;7.584;2023-01-08T10:59:45;90.32;-23.50;99.45;;
43385;Laerm;28988;48.042;7.584;2023-01-08T11:02:16;90.42;-24.91;99.45;;
43385;Laerm;28988;48.042;7.584;2023-01-08T11:04:46;90.47;-21.58;99.36;;
43385;Laerm;28988;48.042;7.584;2023-01-08T11:07:14;90.57;-31.76;99.73;;
43385;Laerm;28988;48.042;7.584;2023-01-08T11:09:47;90.55;-27.91;99.88;;
43385;Laerm;28988;48.042;7.584;2023-01-08T11:12:27;90.44;-38.13;99.36;;
43385;Laerm;28988;48.042;7.584;2023-01-08T11:14:54;90.36;-42.91;99.48;;
43385;Laerm;28988;48.042;7.584;2023-01-08T11:17:20;90.31;-38.80;99.20;;
43385;Laerm;28988;48.042;7.584;2023-01-08T11:19:48;90.26;-30.06;99.23;;
43385;Laerm;28988;48.042;7.584;2023-01-08T11:22:20;90.23;-29.80;99.04;;
43385;Laerm;28988;48.042;7.584;2023-01-08T11:24:46;90.22;-32.14;99.19;;
43385;Laerm;28988;48.042;7.584;2023-01-08T11:29:42;90.22;-50.13;99.02;;
43385;Laerm;28988;48.042;7.584;2023-01-08T11:32:17;90.22;-33.74;99.18;;
43385;Laerm;28988;48.042;7.584;2023-01-08T11:37:30;90.25;-30.23;99.07;;
43385;Laerm;28988;48.042;7.584;2023-01-08T11:39:57;90.27;-44.81;99.17;;
43385;Laerm;28988;48.042;7.584;2023-01-08T11:45:01;90.34;-44.06;99.12;;
43385;Laerm;28988;48.042;7.584;2023-01-08T11:47:43;90.40;-30.22;99.49;;
43385;Laerm;28988;48.042;7.584;2023-01-08T11:52:54;90.52;-31.40;99.64;;
43385;Laerm;28988;48.042;7.584;2023-01-08T11:58:00;90.68;-24.80;100.00;;
43385;Laerm;28988;48.042;7.584;2023-01-08T12:03:02;90.84;-29.84;99.85;;
43385;Laerm;28988;48.042;7.584;2023-01-08T12:05:39;90.91;-17.67;99.75;;
43385;Laerm;28988;48.042;7.584;2023-01-08T12:08:11;91.12;-26.04;100.22;;
43385;Laerm;28988;48.042;7.584;2023-01-08T12:10:44;91.15;-34.49;100.49;;
43385;Laerm;28988;48.042;7.584;2023-01-08T12:18:24;91.09;-12.62;100.29;;
43385;Laerm;28988;48.042;7.584;2023-01-08T12:20:57;91.10;-27.02;100.26;;
43385;Laerm;28988;48.042;7.584;2023-01-08T12:23:31;90.88;-33.93;100.04;;
43385;Laerm;28988;48.042;7.584;2023-01-08T12:28:52;91.00;-37.12;100.38;;
43385;Laerm;28988;48.042;7.584;2023-01-08T12:31:34;91.12;-44.64;100.69;;
43385;Laerm;28988;48.042;7.584;2023-01-08T12:36:32;91.52;-48.84;100.65;;
43385;Laerm;28988;48.042;7.584;2023-01-08T12:39:03;91.38;-20.79;100.22;;
43385;Laerm;28988;48.042;7.584;2023-01-08T12:41:32;91.16;-33.57;100.11;;
43385;Laerm;28988;48.042;7.584;2023-01-08T12:44:02;91.03;-75.63;100.14;;
43385;Laerm;28988;48.042;7.584;2023-01-08T12:46:30;90.91;-42.38;99.87;;
43385;Laerm;28988;48.042;7.584;2023-01-08T12:48:56;90.93;-36.54;100.05;;
43385;Laerm;28988;48.042;7.584;2023-01-08T12:53:54;91.03;-45.83;100.22;;
43385;Laerm;28988;48.042;7.584;2023-01-08T12:58:58;91.12;-62.38;100.51;;
43385;Laerm;28988;48.042;7.584;2023-01-08T13:01:33;91.01;-21.10;99.80;;
43385;Laerm;28988;48.042;7.584;2023-01-08T13:04:00;90.94;-47.77;100.19;;
43385;Laerm;28988;48.042;7.584;2023-01-08T13:06:28;90.83;-42.24;99.92;;
43385;Laerm;28988;48.042;7.584;2023-01-08T13:08:54;90.76;-41.84;100.02;;
43385;Laerm;28988;48.042;7.584;2023-01-08T13:11:23;90.78;-27.38;100.02;;
43385;Laerm;28988;48.042;7.584;2023-01-08T13:13:56;90.73;-53.51;99.93;;
43385;Laerm;28988;48.042;7.584;2023-01-08T13:16:25;90.71;-27.09;99.71;;
43385;Laerm;28988;48.042;7.584;2023-01-08T13:21:15;90.69;-20.22;99.74;;
43385;Laerm;28988;48.042;7.584;2023-01-08T13:23:41;90.74;-34.61;99.84;;
43385;Laerm;28988;48.042;7.584;2023-01-08T13:26:06;90.77;-14.73;99.83;;
43385;Laerm;28988;48.042;7.584;2023-01-08T13:31:12;90.82;-45.75;100.11;;
43385;Laerm;28988;48.042;7.584;2023-01-08T13:33:50;90.74;-24.01;99.72;;
43385;Laerm;28988;48.042;7.584;2023-01-08T13:36:24;90.72;-38.49;99.62;;
43385;Laerm;28988;48.042;7.584;2023-01-08T13:41:56;90.77;-29.04;99.77;;
43385;Laerm;28988;48.042;7.584;2023-01-08T13:44:22;90.97;-28.57;100.08;;
43385;Laerm;28988;48.042;7.584;2023-01-08T13:46:53;91.28;-40.80;99.99;;
43385;Laerm;28988;48.042;7.584;2023-01-08T13:49:41;91.24;-28.67;100.09;;
43385;Laerm;28988;48.042;7.584;2023-01-08T13:52:05;96.10;-30.11;105.13;;
43385;Laerm;28988;48.042;7.584;2023-01-08T13:54:35;91.85;-20.22;101.18;;
43385;Laerm;28988;48.042;7.584;2023-01-08T13:57:06;90.81;-47.77;99.74;;
43385;Laerm;28988;48.042;7.584;2023-01-08T14:02:01;90.60;-31.62;99.76;;
43385;Laerm;28988;48.042;7.584;2023-01-08T14:04:26;90.55;-65.77;99.63;;
43385;Laerm;28988;48.042;7.584;2023-01-08T14:06:52;90.61;-29.85;99.68;;
43385;Laerm;28988;48.042;7.584;2023-01-08T14:09:28;90.54;-42.30;99.84;;
43385;Laerm;28988;48.042;7.584;2023-01-08T14:11:53;90.53;-29.68;99.52;;
43385;Laerm;28988;48.042;7.584;2023-01-08T14:14:20;90.37;-30.88;99.48;;
43385;Laerm;28988;48.042;7.584;2023-01-08T14:16:46;90.28;-48.15;99.12;;
43385;Laerm;28988;48.042;7.584;2023-01-08T14:19:15;90.23;-29.68;99.31;;